createdAt,value
2023-04-16T00:00:14.266Z,1014.35
2023-04-16T00:01:14.554Z,1014.35
2023-04-16T00:02:14.931Z,1014.35
2023-04-16T00:03:15.323Z,1014.35
2023-04-16T00:04:15.547Z,1014.40
2023-04-16T00:05:15.699Z,1014.33
2023-04-16T00:06:15.980Z,1014.36
2023-04-16T00:07:16.258Z,1014.33
2023-04-16T00:08:16.542Z,1014.33
2023-04-16T00:09:16.848Z,1014.38
2023-04-16T00:10:17.173Z,1014.38
2023-04-16T00:11:17.465Z,1014.37
2023-04-16T00:12:17.776Z,1014.37
2023-04-16T00:13:18.072Z,1014.33
2023-04-16T00:14:18.373Z,1014.36
2023-04-16T00:15:18.663Z,1014.30
2023-04-16T00:16:18.969Z,1014.34
2023-04-16T00:17:19.263Z,1014.32
2023-04-16T00:18:19.545Z,1014.37
2023-04-16T00:19:19.811Z,1014.30
2023-04-16T00:20:20.128Z,1014.32
2023-04-16T00:21:20.450Z,1014.29
2023-04-16T00:22:20.725Z,1014.31
2023-04-16T00:23:20.999Z,1014.30
2023-04-16T00:24:21.326Z,1014.26
2023-04-16T00:25:21.620Z,1014.31
2023-04-16T00:26:21.894Z,1014.30
2023-04-16T00:27:22.170Z,1014.36
2023-04-16T00:28:22.446Z,1014.35
2023-04-16T00:29:22.722Z,1014.28
2023-04-16T00:30:23.052Z,1014.30
2023-04-16T00:31:23.379Z,1014.40
2023-04-16T00:32:23.691Z,1014.32
2023-04-16T00:33:23.975Z,1014.34
2023-04-16T00:34:24.266Z,1014.34
2023-04-16T00:35:24.586Z,1014.34
2023-04-16T00:36:24.884Z,1014.41
2023-04-16T00:37:25.156Z,1014.31
2023-04-16T00:38:25.471Z,1014.37
2023-04-16T00:39:25.789Z,1014.39
2023-04-16T00:40:26.070Z,1014.42
2023-04-16T00:41:26.378Z,1014.42
2023-04-16T00:42:26.683Z,1014.39
2023-04-16T00:43:27.023Z,1014.35
2023-04-16T00:44:27.310Z,1014.42
2023-04-16T00:45:27.634Z,1014.38
2023-04-16T00:46:27.997Z,1014.36
2023-04-16T00:47:28.380Z,1014.37
2023-04-16T00:48:28.620Z,1014.33
2023-04-16T00:49:28.765Z,1014.38
2023-04-16T00:50:29.044Z,1014.39
2023-04-16T00:51:29.358Z,1014.34
2023-04-16T00:52:29.668Z,1014.42
2023-04-16T00:53:29.969Z,1014.33
2023-04-16T00:54:30.225Z,1014.40
2023-04-16T00:55:30.511Z,1014.42
2023-04-16T00:56:30.824Z,1014.35
2023-04-16T00:57:31.099Z,1014.41
2023-04-16T00:58:31.416Z,1014.40
2023-04-16T00:59:31.694Z,1014.42
2023-04-16T01:00:31.994Z,1014.40
2023-04-16T01:01:32.329Z,1014.40
2023-04-16T01:02:32.625Z,1014.37
2023-04-16T01:03:33.033Z,1014.42
2023-04-16T01:04:33.216Z,1014.46
2023-04-16T01:05:33.488Z,1014.48
2023-04-16T01:06:33.796Z,1014.42
2023-04-16T01:07:34.108Z,1014.47
2023-04-16T01:08:34.431Z,1014.49
2023-04-16T01:09:34.708Z,1014.49
2023-04-16T01:10:35.012Z,1014.49
2023-04-16T01:11:35.325Z,1014.50
2023-04-16T01:12:35.585Z,1014.45
2023-04-16T01:13:35.906Z,1014.47
2023-04-16T01:14:36.228Z,1014.43
2023-04-16T01:15:36.545Z,1014.46
2023-04-16T01:16:36.801Z,1014.46
2023-04-16T01:17:37.118Z,1014.47
2023-04-16T01:18:37.421Z,1014.46
2023-04-16T01:19:37.714Z,1014.48
2023-04-16T01:20:37.974Z,1014.45
2023-04-16T01:21:38.274Z,1014.45
2023-04-16T01:22:38.576Z,1014.53
2023-04-16T01:23:38.852Z,1014.53
2023-04-16T01:24:39.176Z,1014.46
2023-04-16T01:25:39.446Z,1014.48
2023-04-16T01:26:39.746Z,1014.54
2023-04-16T01:27:40.017Z,1014.48
2023-04-16T01:28:40.305Z,1014.50
2023-04-16T01:29:40.620Z,1014.54
2023-04-16T01:30:40.894Z,1014.57
2023-04-16T01:31:41.264Z,1014.56
2023-04-16T01:32:41.556Z,1014.60
2023-04-16T01:33:41.825Z,1014.56
2023-04-16T01:34:42.114Z,1014.56
2023-04-16T01:35:42.379Z,1014.61
2023-04-16T01:36:42.743Z,1014.59
2023-04-16T01:37:42.992Z,1014.52
2023-04-16T01:38:43.283Z,1014.61
2023-04-16T01:39:43.575Z,1014.57
2023-04-16T01:40:43.874Z,1014.57
2023-04-16T01:41:44.144Z,1014.56
2023-04-16T01:42:44.458Z,1014.58
2023-04-16T01:43:44.760Z,1014.60
2023-04-16T01:44:45.037Z,1014.63
2023-04-16T01:45:45.328Z,1014.61
2023-04-16T01:46:45.658Z,1014.66
2023-04-16T01:47:45.987Z,1014.62
2023-04-16T01:48:46.248Z,1014.64
2023-04-16T01:49:46.560Z,1014.63
2023-04-16T01:50:46.914Z,1014.63
2023-04-16T01:51:47.164Z,1014.55
2023-04-16T01:52:47.436Z,1014.60
2023-04-16T01:53:47.726Z,1014.64
2023-04-16T01:54:48.006Z,1014.61
2023-04-16T01:55:48.316Z,1014.60
2023-04-16T01:56:48.610Z,1014.64
2023-04-16T01:57:48.929Z,1014.63
2023-04-16T01:58:49.248Z,1014.64
2023-04-16T01:59:49.513Z,1014.62
2023-04-16T02:00:49.870Z,1014.68
2023-04-16T02:01:50.156Z,1014.65
2023-04-16T02:02:50.560Z,1014.74
2023-04-16T02:03:50.834Z,1014.73
2023-04-16T02:04:51.021Z,1014.67
2023-04-16T02:05:51.322Z,1014.70
2023-04-16T02:06:51.609Z,1014.71
2023-04-16T02:07:51.903Z,1014.74
2023-04-16T02:08:52.176Z,1014.74
2023-04-16T02:09:52.486Z,1014.70
2023-04-16T02:10:52.783Z,1014.70
2023-04-16T02:11:53.119Z,1014.71
2023-04-16T02:12:53.404Z,1014.67
2023-04-16T02:13:53.717Z,1014.71
2023-04-16T02:14:54.028Z,1014.63
2023-04-16T02:15:54.313Z,1014.64
2023-04-16T02:16:54.630Z,1014.65
2023-04-16T02:17:54.897Z,1014.62
2023-04-16T02:18:55.171Z,1014.64
2023-04-16T02:19:55.459Z,1014.60
2023-04-16T02:20:55.764Z,1014.63
2023-04-16T02:21:56.074Z,1014.65
2023-04-16T02:22:56.384Z,1014.62
2023-04-16T02:23:56.699Z,1014.63
2023-04-16T02:24:57.015Z,1014.69
2023-04-16T02:25:57.307Z,1014.73
2023-04-16T02:26:57.609Z,1014.67
2023-04-16T02:27:57.885Z,1014.67
2023-04-16T02:28:58.182Z,1014.70
2023-04-16T02:29:58.474Z,1014.71
2023-04-16T02:30:58.792Z,1014.60
2023-04-16T02:31:59.119Z,1014.64
2023-04-16T02:32:59.479Z,1014.63
2023-04-16T02:33:59.637Z,1014.63
2023-04-16T02:34:59.912Z,1014.65
2023-04-16T02:36:00.255Z,1014.61
2023-04-16T02:37:00.534Z,1014.63
2023-04-16T02:38:00.843Z,1014.59
2023-04-16T02:39:01.109Z,1014.60
2023-04-16T02:40:01.407Z,1014.61
2023-04-16T02:41:01.731Z,1014.63
2023-04-16T02:42:01.997Z,1014.61
2023-04-16T02:43:02.318Z,1014.62
2023-04-16T02:44:02.590Z,1014.61
2023-04-16T02:45:02.902Z,1014.62
2023-04-16T02:46:03.182Z,1014.66
2023-04-16T02:47:03.479Z,1014.59
2023-04-16T02:48:03.837Z,1014.58
2023-04-16T02:49:04.134Z,1014.65
2023-04-16T02:50:11.479Z,1014.64
2023-04-16T02:51:04.723Z,1014.61
2023-04-16T02:52:07.714Z,1014.61
2023-04-16T02:53:06.996Z,1014.63
2023-04-16T02:54:05.620Z,1014.68
2023-04-16T02:55:05.860Z,1014.66
2023-04-16T02:56:06.167Z,1014.64
2023-04-16T02:57:06.446Z,1014.68
2023-04-16T02:58:06.753Z,1014.71
2023-04-16T02:59:07.283Z,1014.61
2023-04-16T03:00:07.362Z,1014.67
2023-04-16T03:01:07.672Z,1014.75
2023-04-16T03:02:08.031Z,1014.74
2023-04-16T03:03:08.244Z,1014.74
2023-04-16T03:04:08.566Z,1014.62
2023-04-16T03:05:08.824Z,1014.66
2023-04-16T03:06:09.108Z,1014.64
2023-04-16T03:07:09.386Z,1014.71
2023-04-16T03:08:09.701Z,1014.61
2023-04-16T03:09:10.238Z,1014.63
2023-04-16T03:10:10.282Z,1014.59
2023-04-16T03:11:10.580Z,1014.58
2023-04-16T03:12:10.873Z,1014.60
2023-04-16T03:13:11.167Z,1014.62
2023-04-16T03:14:11.444Z,1014.65
2023-04-16T03:15:11.731Z,1014.66
2023-04-16T03:16:12.065Z,1014.66
2023-04-16T03:17:12.294Z,1014.65
2023-04-16T03:18:12.570Z,1014.67
2023-04-16T03:19:12.916Z,1014.68
2023-04-16T03:20:13.177Z,1014.59
2023-04-16T03:21:13.494Z,1014.67
2023-04-16T03:22:13.816Z,1014.61
2023-04-16T03:23:14.093Z,1014.60
2023-04-16T03:24:14.425Z,1014.61
2023-04-16T03:25:14.709Z,1014.62
2023-04-16T03:26:14.982Z,1014.65
2023-04-16T03:27:15.253Z,1014.66
2023-04-16T03:28:15.539Z,1014.64
2023-04-16T03:29:15.855Z,1014.66
2023-04-16T03:30:16.147Z,1014.66
2023-04-16T03:31:16.493Z,1014.65
2023-04-16T03:32:16.762Z,1014.65
2023-04-16T03:33:17.036Z,1014.66
2023-04-16T03:34:17.307Z,1014.70
2023-04-16T03:35:17.620Z,1014.73
2023-04-16T03:36:17.900Z,1014.69
2023-04-16T03:37:18.220Z,1014.72
2023-04-16T03:38:18.513Z,1014.71
2023-04-16T03:39:18.802Z,1014.72
2023-04-16T03:40:19.079Z,1014.77
2023-04-16T03:41:19.365Z,1014.77
2023-04-16T03:42:19.650Z,1014.74
2023-04-16T03:43:19.966Z,1014.74
2023-04-16T03:44:20.237Z,1014.74
2023-04-16T03:45:20.540Z,1014.77
2023-04-16T03:46:20.916Z,1014.81
2023-04-16T03:47:21.181Z,1014.74
2023-04-16T03:48:21.414Z,1014.77
2023-04-16T03:49:21.680Z,1014.80
2023-04-16T03:50:22.012Z,1014.78
2023-04-16T03:51:22.243Z,1014.80
2023-04-16T03:52:22.530Z,1014.80
2023-04-16T03:53:22.825Z,1014.76
2023-04-16T03:54:23.202Z,1014.85
2023-04-16T03:55:23.461Z,1014.85
2023-04-16T03:56:23.760Z,1014.84
2023-04-16T03:57:24.040Z,1014.81
2023-04-16T03:58:24.353Z,1014.83
2023-04-16T03:59:24.681Z,1014.87
2023-04-16T04:00:24.986Z,1014.89
2023-04-16T04:01:25.309Z,1014.89
2023-04-16T04:02:25.726Z,1014.86
2023-04-16T04:03:26.045Z,1014.86
2023-04-16T04:04:26.349Z,1014.89
2023-04-16T04:05:26.495Z,1014.90
2023-04-16T04:06:26.784Z,1014.91
2023-04-16T04:07:27.078Z,1014.97
2023-04-16T04:08:27.383Z,1014.98
2023-04-16T04:09:27.700Z,1014.94
2023-04-16T04:10:28.004Z,1014.94
2023-04-16T04:11:28.279Z,1014.93
2023-04-16T04:12:28.586Z,1014.98
2023-04-16T04:13:28.854Z,1014.90
2023-04-16T04:14:29.181Z,1014.91
2023-04-16T04:15:29.434Z,1014.97
2023-04-16T04:16:29.737Z,1014.95
2023-04-16T04:17:30.148Z,1014.97
2023-04-16T04:18:30.271Z,1014.97
2023-04-16T04:19:30.584Z,1014.96
2023-04-16T04:20:30.860Z,1014.99
2023-04-16T04:21:31.182Z,1014.96
2023-04-16T04:22:31.481Z,1014.96
2023-04-16T04:23:31.780Z,1015.02
2023-04-16T04:24:32.123Z,1015.01
2023-04-16T04:25:32.386Z,1015.04
2023-04-16T04:26:32.712Z,1015.07
2023-04-16T04:27:33.002Z,1015.10
2023-04-16T04:28:33.287Z,1015.17
2023-04-16T04:29:33.606Z,1015.13
2023-04-16T04:30:33.867Z,1015.10
2023-04-16T04:31:34.216Z,1015.13
2023-04-16T04:32:34.522Z,1015.15
2023-04-16T04:33:34.780Z,1015.16
2023-04-16T04:34:35.100Z,1015.16
2023-04-16T04:35:35.386Z,1015.15
2023-04-16T04:36:35.707Z,1015.15
2023-04-16T04:37:36.011Z,1015.17
2023-04-16T04:38:36.331Z,1015.18
2023-04-16T04:39:36.624Z,1015.16
2023-04-16T04:40:36.924Z,1015.13
2023-04-16T04:41:37.225Z,1015.18
2023-04-16T04:42:37.538Z,1015.13
2023-04-16T04:43:37.847Z,1015.14
2023-04-16T04:44:38.156Z,1015.21
2023-04-16T04:45:38.518Z,1015.12
2023-04-16T04:46:38.667Z,1015.19
2023-04-16T04:47:39.032Z,1015.15
2023-04-16T04:48:39.368Z,1015.12
2023-04-16T04:49:39.654Z,1015.15
2023-04-16T04:50:39.941Z,1015.16
2023-04-16T04:51:40.228Z,1015.11
2023-04-16T04:52:40.568Z,1015.08
2023-04-16T04:53:40.893Z,1015.08
2023-04-16T04:54:41.246Z,1015.08
2023-04-16T04:55:41.564Z,1015.11
2023-04-16T04:56:41.844Z,1015.15
2023-04-16T04:57:42.209Z,1015.09
2023-04-16T04:58:42.467Z,1015.12
2023-04-16T04:59:42.768Z,1015.13
2023-04-16T05:00:43.049Z,1015.13
2023-04-16T05:01:43.339Z,1015.10
2023-04-16T05:02:43.777Z,1015.15
2023-04-16T05:03:44.092Z,1015.13
2023-04-16T05:04:44.347Z,1015.10
2023-04-16T05:05:44.614Z,1015.09
2023-04-16T05:06:44.937Z,1015.15
2023-04-16T05:07:45.246Z,1015.16
2023-04-16T05:08:45.555Z,1015.18
2023-04-16T05:09:45.907Z,1015.21
2023-04-16T05:10:46.239Z,1015.19
2023-04-16T05:11:46.585Z,1015.21
2023-04-16T05:12:48.801Z,1015.22
2023-04-16T05:13:47.112Z,1015.23
2023-04-16T05:14:47.418Z,1015.18
2023-04-16T05:15:47.763Z,1015.26
2023-04-16T05:16:48.096Z,1015.21
2023-04-16T05:17:48.413Z,1015.25
2023-04-16T05:18:48.714Z,1015.25
2023-04-16T05:19:49.023Z,1015.31
2023-04-16T05:20:49.361Z,1015.29
2023-04-16T05:21:49.673Z,1015.32
2023-04-16T05:22:50.009Z,1015.24
2023-04-16T05:23:50.347Z,1015.28
2023-04-16T05:24:50.656Z,1015.27
2023-04-16T05:25:51.022Z,1015.32
2023-04-16T05:26:51.247Z,1015.28
2023-04-16T05:27:51.440Z,1015.30
2023-04-16T05:28:51.753Z,1015.33
2023-04-16T05:29:52.102Z,1015.35
2023-04-16T05:30:52.357Z,1015.33
2023-04-16T05:31:52.646Z,1015.33
2023-04-16T05:32:52.978Z,1015.35
2023-04-16T05:33:53.260Z,1015.35
2023-04-16T05:34:53.588Z,1015.42
2023-04-16T05:35:53.915Z,1015.35
2023-04-16T05:36:54.216Z,1015.40
2023-04-16T05:37:54.561Z,1015.44
2023-04-16T05:38:54.789Z,1015.43
2023-04-16T05:39:55.009Z,1015.43
2023-04-16T05:40:55.334Z,1015.41
2023-04-16T05:41:55.648Z,1015.51
2023-04-16T05:42:55.947Z,1015.45
2023-04-16T05:43:56.270Z,1015.47
2023-04-16T05:44:56.637Z,1015.52
2023-04-16T05:45:56.893Z,1015.51
2023-04-16T05:46:57.216Z,1015.53
2023-04-16T05:47:57.534Z,1015.53
2023-04-16T05:48:57.816Z,1015.57
2023-04-16T05:49:58.166Z,1015.58
2023-04-16T05:50:58.390Z,1015.57
2023-04-16T05:51:58.604Z,1015.63
2023-04-16T05:52:58.928Z,1015.58
2023-04-16T05:53:59.212Z,1015.67
2023-04-16T05:54:59.574Z,1015.60
2023-04-16T05:55:59.766Z,1015.60
2023-04-16T05:57:00.123Z,1015.65
2023-04-16T05:58:00.290Z,1015.59
2023-04-16T05:59:00.604Z,1015.63
2023-04-16T06:00:00.956Z,1015.63
2023-04-16T06:01:01.169Z,1015.67
2023-04-16T06:02:01.583Z,1015.63
2023-04-16T06:03:01.855Z,1015.67
2023-04-16T06:04:02.197Z,1015.64
2023-04-16T06:05:02.367Z,1015.73
2023-04-16T06:06:02.750Z,1015.69
2023-04-16T06:07:02.854Z,1015.69
2023-04-16T06:08:03.159Z,1015.67
2023-04-16T06:09:03.465Z,1015.70
2023-04-16T06:10:03.839Z,1015.67
2023-04-16T06:11:04.133Z,1015.67
2023-04-16T06:12:04.502Z,1015.72
2023-04-16T06:13:04.714Z,1015.72
2023-04-16T06:14:04.957Z,1015.69
2023-04-16T06:15:05.216Z,1015.74
2023-04-16T06:16:05.475Z,1015.70
2023-04-16T06:17:05.676Z,1015.72
2023-04-16T06:18:05.923Z,1015.70
2023-04-16T06:19:06.199Z,1015.75
2023-04-16T06:20:06.505Z,1015.76
2023-04-16T06:21:06.845Z,1015.74
2023-04-16T06:22:07.207Z,1015.69
2023-04-16T06:23:07.496Z,1015.72
2023-04-16T06:24:07.816Z,1015.65
2023-04-16T06:25:08.131Z,1015.67
2023-04-16T06:26:08.462Z,1015.68
2023-04-16T06:27:08.758Z,1015.66
2023-04-16T06:28:09.061Z,1015.68
2023-04-16T06:29:09.603Z,1015.68
2023-04-16T06:30:09.720Z,1015.66
2023-04-16T06:31:10.041Z,1015.69
2023-04-16T06:32:10.245Z,1015.64
2023-04-16T06:33:10.537Z,1015.71
2023-04-16T06:34:10.882Z,1015.72
2023-04-16T06:35:11.195Z,1015.73
2023-04-16T06:36:11.670Z,1015.72
2023-04-16T06:37:11.915Z,1015.79
2023-04-16T06:38:12.078Z,1015.76
2023-04-16T06:39:12.390Z,1015.80
2023-04-16T06:40:12.719Z,1015.76
2023-04-16T06:41:13.097Z,1015.79
2023-04-16T06:42:13.332Z,1015.78
2023-04-16T06:43:13.647Z,1015.82
2023-04-16T06:44:13.858Z,1015.79
2023-04-16T06:45:14.100Z,1015.78
2023-04-16T06:46:14.397Z,1015.81
2023-04-16T06:47:14.561Z,1015.81
2023-04-16T06:48:14.857Z,1015.88
2023-04-16T06:49:15.215Z,1015.86
2023-04-16T06:50:15.445Z,1015.86
2023-04-16T06:51:15.687Z,1015.85
2023-04-16T06:52:15.864Z,1015.90
2023-04-16T06:53:16.212Z,1015.89
2023-04-16T06:54:16.516Z,1015.94
2023-04-16T06:55:16.787Z,1015.95
2023-04-16T06:56:17.079Z,1015.96
2023-04-16T06:57:17.442Z,1016.06
2023-04-16T06:58:17.717Z,1015.94
2023-04-16T06:59:17.994Z,1015.99
2023-04-16T07:00:18.331Z,1016.01
2023-04-16T07:01:18.732Z,1016.05
2023-04-16T07:02:19.053Z,1016.04
2023-04-16T07:03:19.408Z,1015.99
2023-04-16T07:04:19.567Z,1016.03
2023-04-16T07:05:19.726Z,1016.02
2023-04-16T07:06:20.033Z,1016.02
2023-04-16T07:07:20.332Z,1015.99
2023-04-16T07:08:20.632Z,1015.98
2023-04-16T07:09:20.976Z,1016.02
2023-04-16T07:10:21.220Z,1016.01
2023-04-16T07:11:21.411Z,1016.04
2023-04-16T07:12:22.754Z,1016.04
2023-04-16T07:13:22.005Z,1016.04
2023-04-16T07:14:22.212Z,1016.10
2023-04-16T07:15:22.548Z,1016.07
2023-04-16T07:16:22.927Z,1016.11
2023-04-16T07:17:23.195Z,1016.07
2023-04-16T07:18:23.502Z,1016.05
2023-04-16T07:19:23.869Z,1016.12
2023-04-16T07:20:24.184Z,1016.09
2023-04-16T07:21:24.379Z,1016.12
2023-04-16T07:22:24.739Z,1016.11
2023-04-16T07:23:24.958Z,1016.14
2023-04-16T07:24:25.195Z,1016.19
2023-04-16T07:25:25.467Z,1016.14
2023-04-16T07:26:25.613Z,1016.14
2023-04-16T07:27:25.939Z,1016.16
2023-04-16T07:28:26.269Z,1016.10
2023-04-16T07:29:26.607Z,1016.15
2023-04-16T07:30:26.976Z,1016.14
2023-04-16T07:31:27.257Z,1016.12
2023-04-16T07:32:27.592Z,1016.12
2023-04-16T07:33:27.907Z,1016.15
2023-04-16T07:34:28.232Z,1016.16
2023-04-16T07:35:28.596Z,1016.19
2023-04-16T07:36:28.819Z,1016.19
2023-04-16T07:37:29.126Z,1016.22
2023-04-16T07:38:29.473Z,1016.18
2023-04-16T07:39:29.804Z,1016.21
2023-04-16T07:40:30.066Z,1016.26
2023-04-16T07:41:30.382Z,1016.27
2023-04-16T07:42:30.602Z,1016.26
2023-04-16T07:43:30.912Z,1016.28
2023-04-16T07:44:31.246Z,1016.32
2023-04-16T07:45:31.565Z,1016.31
2023-04-16T07:46:45.464Z,1016.31
2023-04-16T07:47:33.248Z,1016.32
2023-04-16T07:48:32.532Z,1016.30
2023-04-16T07:49:32.892Z,1016.36
2023-04-16T07:50:33.074Z,1016.36
2023-04-16T07:51:33.418Z,1016.38
2023-04-16T07:52:33.599Z,1016.36
2023-04-16T07:53:34.000Z,1016.38
2023-04-16T07:54:34.258Z,1016.38
2023-04-16T07:55:34.621Z,1016.37
2023-04-16T07:56:34.838Z,1016.35
2023-04-16T07:57:35.181Z,1016.37
2023-04-16T07:58:35.427Z,1016.39
2023-04-16T07:59:35.638Z,1016.40
2023-04-16T08:00:35.943Z,1016.40
2023-04-16T08:01:36.292Z,1016.44
2023-04-16T08:02:36.689Z,1016.42
2023-04-16T08:03:36.961Z,1016.45
2023-04-16T08:04:37.267Z,1016.44
2023-04-16T08:05:37.432Z,1016.47
2023-04-16T08:06:37.715Z,1016.46
2023-04-16T08:07:38.048Z,1016.45
2023-04-16T08:08:38.391Z,1016.46
2023-04-16T08:09:38.653Z,1016.47
2023-04-16T08:10:38.848Z,1016.46
2023-04-16T08:11:39.167Z,1016.44
2023-04-16T08:12:39.519Z,1016.47
2023-04-16T08:13:39.856Z,1016.44
2023-04-16T08:14:40.077Z,1016.47
2023-04-16T08:15:40.463Z,1016.45
2023-04-16T08:16:40.685Z,1016.51
2023-04-16T08:17:40.980Z,1016.50
2023-04-16T08:18:41.162Z,1016.50
2023-04-16T08:19:41.444Z,1016.51
2023-04-16T08:20:41.629Z,1016.56
2023-04-16T08:21:41.871Z,1016.56
2023-04-16T08:22:42.125Z,1016.60
2023-04-16T08:23:42.358Z,1016.59
2023-04-16T08:24:42.556Z,1016.59
2023-04-16T08:25:42.898Z,1016.65
2023-04-16T08:26:43.220Z,1016.62
2023-04-16T08:27:43.567Z,1016.66
2023-04-16T08:28:43.876Z,1016.67
2023-04-16T08:29:44.198Z,1016.65
2023-04-16T08:30:44.584Z,1016.68
2023-04-16T08:31:44.839Z,1016.67
2023-04-16T08:32:46.410Z,1016.69
2023-04-16T08:33:45.385Z,1016.67
2023-04-16T08:34:45.652Z,1016.71
2023-04-16T08:35:45.878Z,1016.71
2023-04-16T08:36:46.249Z,1016.71
2023-04-16T08:37:46.548Z,1016.72
2023-04-16T08:38:46.692Z,1016.67
2023-04-16T08:39:47.080Z,1016.66
2023-04-16T08:40:47.279Z,1016.62
2023-04-16T08:41:47.644Z,1016.67
2023-04-16T08:42:47.875Z,1016.75
2023-04-16T08:43:48.082Z,1016.69
2023-04-16T08:44:49.252Z,1016.70
2023-04-16T08:45:48.739Z,1016.66
2023-04-16T08:46:49.116Z,1016.65
2023-04-16T08:47:49.421Z,1016.65
2023-04-16T08:48:49.633Z,1016.67
2023-04-16T08:49:49.905Z,1016.69
2023-04-16T08:50:51.195Z,1016.64
2023-04-16T08:51:50.384Z,1016.68
2023-04-16T08:52:50.588Z,1016.66
2023-04-16T08:53:50.812Z,1016.72
2023-04-16T08:55:00.829Z,1016.71
2023-04-16T08:55:51.340Z,1016.69
2023-04-16T08:56:51.662Z,1016.74
2023-04-16T08:57:51.981Z,1016.77
2023-04-16T08:58:52.321Z,1016.78
2023-04-16T08:59:52.664Z,1016.78
2023-04-16T09:00:53.030Z,1016.75
2023-04-16T09:01:53.365Z,1016.78
2023-04-16T09:02:53.787Z,1016.79
2023-04-16T09:03:54.107Z,1016.79
2023-04-16T09:04:54.270Z,1016.77
2023-04-16T09:05:54.576Z,1016.82
2023-04-16T09:06:54.708Z,1016.82
2023-04-16T09:07:55.045Z,1016.84
2023-04-16T09:08:55.405Z,1016.84
2023-04-16T09:09:55.597Z,1016.84
2023-04-16T09:10:55.932Z,1016.83
2023-04-16T09:11:56.302Z,1016.81
2023-04-16T09:12:56.553Z,1016.81
2023-04-16T09:13:56.779Z,1016.81
2023-04-16T09:14:56.989Z,1016.80
2023-04-16T09:15:57.411Z,1016.81
2023-04-16T09:16:57.625Z,1016.79
2023-04-16T09:17:57.893Z,1016.80
2023-04-16T09:18:58.094Z,1016.83
2023-04-16T09:19:58.424Z,1016.81
2023-04-16T09:20:58.821Z,1016.80
2023-04-16T09:21:59.001Z,1016.79
2023-04-16T09:22:59.310Z,1016.85
2023-04-16T09:23:59.663Z,1016.84
2023-04-16T09:24:59.878Z,1016.91
2023-04-16T09:26:00.230Z,1016.86
2023-04-16T09:27:00.547Z,1016.91
2023-04-16T09:28:00.861Z,1016.89
2023-04-16T09:29:01.202Z,1016.88
2023-04-16T09:30:01.563Z,1016.93
2023-04-16T09:31:01.856Z,1016.98
2023-04-16T09:32:02.071Z,1016.99
2023-04-16T09:33:02.375Z,1017.01
2023-04-16T09:34:02.718Z,1017.02
2023-04-16T09:35:02.952Z,1017.02
2023-04-16T09:36:03.330Z,1017.04
2023-04-16T09:37:03.641Z,1017.07
2023-04-16T09:38:04.022Z,1017.05
2023-04-16T09:39:04.221Z,1017.06
2023-04-16T09:40:04.557Z,1017.05
2023-04-16T09:41:04.928Z,1017.02
2023-04-16T09:42:05.126Z,1017.07
2023-04-16T09:43:05.489Z,1017.05
2023-04-16T09:44:05.747Z,1017.12
2023-04-16T09:45:06.402Z,1017.07
2023-04-16T09:46:08.231Z,1017.10
2023-04-16T09:47:06.680Z,1017.10
2023-04-16T09:48:07.020Z,1017.09
2023-04-16T09:49:07.336Z,1017.14
2023-04-16T09:50:07.386Z,1017.08
2023-04-16T09:51:07.719Z,1017.12
2023-04-16T09:52:08.085Z,1017.11
2023-04-16T09:53:08.278Z,1017.13
2023-04-16T09:54:08.636Z,1017.12
2023-04-16T09:55:08.868Z,1017.12
2023-04-16T09:56:09.184Z,1017.16
2023-04-16T09:57:09.523Z,1017.11
2023-04-16T09:58:09.777Z,1017.08
2023-04-16T09:59:10.187Z,1017.09
2023-04-16T10:00:10.333Z,1017.03
2023-04-16T10:01:10.718Z,1017.08
2023-04-16T10:02:15.226Z,1017.07
2023-04-16T10:03:12.322Z,1017.06
2023-04-16T10:04:11.604Z,1017.11
2023-04-16T10:05:11.795Z,1017.10
2023-04-16T10:06:12.138Z,1017.10
2023-04-16T10:07:12.477Z,1017.12
2023-04-16T10:08:12.845Z,1017.14
2023-04-16T10:09:13.136Z,1017.10
2023-04-16T10:10:13.316Z,1017.12
2023-04-16T10:11:13.561Z,1017.15
2023-04-16T10:12:13.839Z,1017.14
2023-04-16T10:13:14.140Z,1017.19
2023-04-16T10:14:14.468Z,1017.17
2023-04-16T10:15:14.800Z,1017.19
2023-04-16T10:16:15.155Z,1017.19
2023-04-16T10:17:15.475Z,1017.17
2023-04-16T10:18:15.812Z,1017.22
2023-04-16T10:19:16.136Z,1017.22
2023-04-16T10:20:17.319Z,1017.23
2023-04-16T10:21:16.768Z,1017.22
2023-04-16T10:22:17.090Z,1017.19
2023-04-16T10:23:17.460Z,1017.19
2023-04-16T10:24:17.773Z,1017.18
2023-04-16T10:25:18.000Z,1017.22
2023-04-16T10:26:18.354Z,1017.23
2023-04-16T10:27:18.573Z,1017.20
2023-04-16T10:28:18.939Z,1017.23
2023-04-16T10:29:19.142Z,1017.31
2023-04-16T10:30:19.529Z,1017.25
2023-04-16T10:31:19.843Z,1017.28
2023-04-16T10:32:20.064Z,1017.30
2023-04-16T10:33:20.258Z,1017.29
2023-04-16T10:34:20.624Z,1017.28
2023-04-16T10:35:20.928Z,1017.24
2023-04-16T10:36:21.105Z,1017.27
2023-04-16T10:37:21.324Z,1017.29
2023-04-16T10:38:21.684Z,1017.28
2023-04-16T10:39:21.898Z,1017.33
2023-04-16T10:40:22.242Z,1017.29
2023-04-16T10:41:22.487Z,1017.27
2023-04-16T10:42:22.790Z,1017.24
2023-04-16T10:43:23.141Z,1017.25
2023-04-16T10:44:23.339Z,1017.22
2023-04-16T10:45:23.714Z,1017.26
2023-04-16T10:46:28.010Z,1017.25
2023-04-16T10:47:24.211Z,1017.22
2023-04-16T10:48:24.405Z,1017.19
2023-04-16T10:49:24.743Z,1017.19
2023-04-16T10:50:25.079Z,1017.18
2023-04-16T10:51:25.409Z,1017.18
2023-04-16T10:52:25.744Z,1017.20
2023-04-16T10:53:26.204Z,1017.15
2023-04-16T10:54:26.390Z,1017.17
2023-04-16T10:55:26.602Z,1017.19
2023-04-16T10:56:26.961Z,1017.18
2023-04-16T10:57:27.186Z,1017.18
2023-04-16T10:58:27.503Z,1017.20
2023-04-16T10:59:27.878Z,1017.23
2023-04-16T11:00:28.088Z,1017.21
2023-04-16T11:01:28.455Z,1017.24
2023-04-16T11:02:28.992Z,1017.18
2023-04-16T11:03:29.069Z,1017.20
2023-04-16T11:04:29.394Z,1017.19
2023-04-16T11:05:29.570Z,1017.19
2023-04-16T11:06:29.870Z,1017.17
2023-04-16T11:07:30.203Z,1017.15
2023-04-16T11:08:30.582Z,1017.19
2023-04-16T11:09:30.810Z,1017.16
2023-04-16T11:10:31.049Z,1017.19
2023-04-16T11:11:31.268Z,1017.16
2023-04-16T11:12:31.638Z,1017.13
2023-04-16T11:13:31.886Z,1017.16
2023-04-16T11:14:32.130Z,1017.18
2023-04-16T11:15:32.339Z,1017.14
2023-04-16T11:16:32.689Z,1017.20
2023-04-16T11:17:33.077Z,1017.13
2023-04-16T11:18:33.260Z,1017.13
2023-04-16T11:19:33.639Z,1017.11
2023-04-16T11:20:33.852Z,1017.13
2023-04-16T11:21:34.090Z,1017.16
2023-04-16T11:22:34.330Z,1017.15
2023-04-16T11:23:34.595Z,1017.16
2023-04-16T11:24:34.808Z,1017.14
2023-04-16T11:25:35.017Z,1017.19
2023-04-16T11:26:35.392Z,1017.16
2023-04-16T11:27:35.580Z,1017.18
2023-04-16T11:28:35.934Z,1017.16
2023-04-16T11:29:36.167Z,1017.17
2023-04-16T11:30:36.437Z,1017.17
2023-04-16T11:31:36.682Z,1017.14
2023-04-16T11:32:37.003Z,1017.19
2023-04-16T11:33:37.307Z,1017.17
2023-04-16T11:34:37.678Z,1017.14
2023-04-16T11:35:37.933Z,1017.14
2023-04-16T11:36:38.145Z,1017.17
2023-04-16T11:37:38.503Z,1017.17
2023-04-16T11:38:38.831Z,1017.12
2023-04-16T11:39:39.134Z,1017.13
2023-04-16T11:40:39.314Z,1017.14
2023-04-16T11:41:39.534Z,1017.15
2023-04-16T11:42:39.951Z,1017.16
2023-04-16T11:43:40.165Z,1017.18
2023-04-16T11:44:40.541Z,1017.16
2023-04-16T11:45:40.734Z,1017.19
2023-04-16T11:46:41.197Z,1017.18
2023-04-16T11:47:41.376Z,1017.20
2023-04-16T11:48:41.673Z,1017.17
2023-04-16T11:49:42.030Z,1017.23
2023-04-16T11:50:42.250Z,1017.18
2023-04-16T11:51:42.608Z,1017.16
2023-04-16T11:52:42.815Z,1017.21
2023-04-16T11:53:43.141Z,1017.19
2023-04-16T11:54:43.515Z,1017.17
2023-04-16T11:55:43.750Z,1017.20
2023-04-16T11:56:44.079Z,1017.16
2023-04-16T11:57:44.460Z,1017.22
2023-04-16T11:58:44.717Z,1017.16
2023-04-16T12:00:02.011Z,1017.20
2023-04-16T12:00:46.248Z,1017.14
2023-04-16T12:01:45.565Z,1017.14
2023-04-16T12:02:45.936Z,1017.13
2023-04-16T12:03:46.354Z,1017.14
2023-04-16T12:04:46.432Z,1017.16
2023-04-16T12:05:46.661Z,1017.18
2023-04-16T12:06:46.900Z,1017.15
2023-04-16T12:07:47.216Z,1017.16
2023-04-16T12:08:47.568Z,1017.19